sensor_id;sensor_type;location;lat;lon;timestamp;temperature;humidity
34147;DHT22;20423;49.448;9.056;2023-07-13T00:00:11;16.90;99.90
34147;DHT22;20423;49.448;9.056;2023-07-13T00:02:40;16.80;99.90
34147;DHT22;20423;49.448;9.056;2023-07-13T00:05:06;16.60;99.90
34147;DHT22;20423;49.448;9.056;2023-07-13T00:07:32;16.60;99.90
34147;DHT22;20423;49.448;9.056;2023-07-13T00:09:57;16.50;99.90
34147;DHT22;20423;49.448;9.056;2023-07-13T00:14:50;16.50;99.90
34147;DHT22;20423;49.448;9.056;2023-07-13T00:17:16;16.40;99.90
34147;DHT22;20423;49.448;9.056;2023-07-13T00:19:51;16.30;99.90
34147;DHT22;20423;49.448;9.056;2023-07-13T00:22:17;16.20;99.90
34147;DHT22;20423;49.448;9.056;2023-07-13T00:24:43;16.10;99.90
34147;DHT22;20423;49.448;9.056;2023-07-13T00:27:09;16.00;99.90
34147;DHT22;20423;49.448;9.056;2023-07-13T00:29:35;16.00;99.90
34147;DHT22;20423;49.448;9.056;2023-07-13T00:32:02;15.90;99.90
34147;DHT22;20423;49.448;9.056;2023-07-13T00:34:28;15.90;99.90
34147;DHT22;20423;49.448;9.056;2023-07-13T00:36:53;15.90;99.90
34147;DHT22;20423;49.448;9.056;2023-07-13T00:42:48;15.90;99.90
34147;DHT22;20423;49.448;9.056;2023-07-13T00:47:43;15.80;99.90
34147;DHT22;20423;49.448;9.056;2023-07-13T00:50:10;15.80;99.90
34147;DHT22;20423;49.448;9.056;2023-07-13T00:52:37;15.70;99.90
34147;DHT22;20423;49.448;9.056;2023-07-13T00:55:03;15.70;99.90
34147;DHT22;20423;49.448;9.056;2023-07-13T00:57:29;15.60;99.90
34147;DHT22;20423;49.448;9.056;2023-07-13T00:59:57;15.60;99.90
34147;DHT22;20423;49.448;9.056;2023-07-13T01:02:24;15.70;99.90
34147;DHT22;20423;49.448;9.056;2023-07-13T01:04:50;15.70;99.90
34147;DHT22;20423;49.448;9.056;2023-07-13T01:07:16;15.70;99.90
34147;DHT22;20423;49.448;9.056;2023-07-13T01:09:41;15.70;99.90
34147;DHT22;20423;49.448;9.056;2023-07-13T01:12:07;15.70;99.90
34147;DHT22;20423;49.448;9.056;2023-07-13T01:14:33;15.60;99.90
34147;DHT22;20423;49.448;9.056;2023-07-13T01:16:59;15.60;99.90
34147;DHT22;20423;49.448;9.056;2023-07-13T01:19:33;15.60;99.90
34147;DHT22;20423;49.448;9.056;2023-07-13T01:22:05;15.50;99.90
34147;DHT22;20423;49.448;9.056;2023-07-13T01:24:37;15.50;99.90
34147;DHT22;20423;49.448;9.056;2023-07-13T01:27:03;15.50;99.90
34147;DHT22;20423;49.448;9.056;2023-07-13T01:29:30;15.40;99.90
34147;DHT22;20423;49.448;9.056;2023-07-13T01:31:55;15.40;99.90
34147;DHT22;20423;49.448;9.056;2023-07-13T01:34:21;15.40;99.90
34147;DHT22;20423;49.448;9.056;2023-07-13T01:36:47;15.40;99.90
34147;DHT22;20423;49.448;9.056;2023-07-13T01:39:12;15.40;99.90
34147;DHT22;20423;49.448;9.056;2023-07-13T01:41:38;15.30;99.90
34147;DHT22;20423;49.448;9.056;2023-07-13T01:44:04;15.30;99.90
34147;DHT22;20423;49.448;9.056;2023-07-13T01:46:30;15.30;99.90
34147;DHT22;20423;49.448;9.056;2023-07-13T01:48:56;15.30;99.90
34147;DHT22;20423;49.448;9.056;2023-07-13T01:51:22;15.20;99.90
34147;DHT22;20423;49.448;9.056;2023-07-13T01:53:48;15.20;99.90
34147;DHT22;20423;49.448;9.056;2023-07-13T01:56:13;15.20;99.90
34147;DHT22;20423;49.448;9.056;2023-07-13T01:58:40;15.10;99.90
34147;DHT22;20423;49.448;9.056;2023-07-13T02:01:05;15.10;99.90
34147;DHT22;20423;49.448;9.056;2023-07-13T02:03:31;15.00;99.90
34147;DHT22;20423;49.448;9.056;2023-07-13T02:05:57;15.00;99.90
34147;DHT22;20423;49.448;9.056;2023-07-13T02:08:23;15.00;99.90
34147;DHT22;20423;49.448;9.056;2023-07-13T02:10:49;14.80;99.90
34147;DHT22;20423;49.448;9.056;2023-07-13T02:13:15;14.70;99.90
34147;DHT22;20423;49.448;9.056;2023-07-13T02:15:40;14.80;99.90
34147;DHT22;20423;49.448;9.056;2023-07-13T02:18:06;14.80;99.90
34147;DHT22;20423;49.448;9.056;2023-07-13T02:20:32;14.90;99.90
34147;DHT22;20423;49.448;9.056;2023-07-13T02:22:58;15.00;99.90
34147;DHT22;20423;49.448;9.056;2023-07-13T02:25:23;14.80;99.90
34147;DHT22;20423;49.448;9.056;2023-07-13T02:27:50;14.70;99.90
34147;DHT22;20423;49.448;9.056;2023-07-13T02:30:16;14.60;99.90
34147;DHT22;20423;49.448;9.056;2023-07-13T02:32:42;14.60;99.90
34147;DHT22;20423;49.448;9.056;2023-07-13T02:35:09;14.60;99.90
34147;DHT22;20423;49.448;9.056;2023-07-13T02:37:37;14.50;99.90
34147;DHT22;20423;49.448;9.056;2023-07-13T02:40:02;14.40;99.90
34147;DHT22;20423;49.448;9.056;2023-07-13T02:42:59;14.40;99.90
34147;DHT22;20423;49.448;9.056;2023-07-13T02:45:25;14.30;99.90
34147;DHT22;20423;49.448;9.056;2023-07-13T02:47:50;14.30;99.90
34147;DHT22;20423;49.448;9.056;2023-07-13T02:50:16;14.20;99.90
34147;DHT22;20423;49.448;9.056;2023-07-13T02:52:42;14.20;99.90
34147;DHT22;20423;49.448;9.056;2023-07-13T02:55:08;14.10;99.90
34147;DHT22;20423;49.448;9.056;2023-07-13T02:57:34;14.10;99.90
34147;DHT22;20423;49.448;9.056;2023-07-13T03:00:00;14.10;99.90
34147;DHT22;20423;49.448;9.056;2023-07-13T03:02:26;14.10;99.90
34147;DHT22;20423;49.448;9.056;2023-07-13T03:04:54;14.20;99.90
34147;DHT22;20423;49.448;9.056;2023-07-13T03:07:20;14.30;99.90
34147;DHT22;20423;49.448;9.056;2023-07-13T03:09:49;14.30;99.90
34147;DHT22;20423;49.448;9.056;2023-07-13T03:12:19;14.20;99.90
34147;DHT22;20423;49.448;9.056;2023-07-13T03:14:44;14.10;99.90
34147;DHT22;20423;49.448;9.056;2023-07-13T03:17:10;14.00;99.90
34147;DHT22;20423;49.448;9.056;2023-07-13T03:19:38;13.90;99.90
34147;DHT22;20423;49.448;9.056;2023-07-13T03:22:04;14.00;99.90
34147;DHT22;20423;49.448;9.056;2023-07-13T03:24:34;13.90;99.90
34147;DHT22;20423;49.448;9.056;2023-07-13T03:27:01;14.00;99.90
34147;DHT22;20423;49.448;9.056;2023-07-13T03:29:28;14.00;99.90
34147;DHT22;20423;49.448;9.056;2023-07-13T03:31:53;14.00;99.90
34147;DHT22;20423;49.448;9.056;2023-07-13T03:34:24;14.00;99.90
34147;DHT22;20423;49.448;9.056;2023-07-13T03:36:50;14.00;99.90
34147;DHT22;20423;49.448;9.056;2023-07-13T03:39:19;14.00;99.90
34147;DHT22;20423;49.448;9.056;2023-07-13T03:41:47;14.00;99.90
34147;DHT22;20423;49.448;9.056;2023-07-13T03:44:15;14.10;99.90
34147;DHT22;20423;49.448;9.056;2023-07-13T03:46:41;14.10;99.90
34147;DHT22;20423;49.448;9.056;2023-07-13T03:52:01;14.30;99.90
34147;DHT22;20423;49.448;9.056;2023-07-13T03:54:26;14.30;99.90
34147;DHT22;20423;49.448;9.056;2023-07-13T03:56:52;14.30;99.90
34147;DHT22;20423;49.448;9.056;2023-07-13T03:59:20;14.40;99.90
34147;DHT22;20423;49.448;9.056;2023-07-13T04:01:46;14.50;99.90
34147;DHT22;20423;49.448;9.056;2023-07-13T04:04:12;14.50;99.90
34147;DHT22;20423;49.448;9.056;2023-07-13T04:06:38;14.50;99.90
34147;DHT22;20423;49.448;9.056;2023-07-13T04:09:03;14.50;99.90
34147;DHT22;20423;49.448;9.056;2023-07-13T04:11:37;14.50;99.90
34147;DHT22;20423;49.448;9.056;2023-07-13T04:14:02;14.50;99.90
34147;DHT22;20423;49.448;9.056;2023-07-13T04:16:28;14.60;99.90
34147;DHT22;20423;49.448;9.056;2023-07-13T04:18:54;14.60;99.90
34147;DHT22;20423;49.448;9.056;2023-07-13T04:21:24;14.60;99.90
34147;DHT22;20423;49.448;9.056;2023-07-13T04:23:50;14.70;99.90
34147;DHT22;20423;49.448;9.056;2023-07-13T04:26:16;14.70;99.90
34147;DHT22;20423;49.448;9.056;2023-07-13T04:28:41;14.80;99.90
34147;DHT22;20423;49.448;9.056;2023-07-13T04:31:07;14.80;99.90
34147;DHT22;20423;49.448;9.056;2023-07-13T04:33:33;14.80;99.90
34147;DHT22;20423;49.448;9.056;2023-07-13T04:42:56;14.80;99.90
34147;DHT22;20423;49.448;9.056;2023-07-13T04:45:22;14.80;99.90
34147;DHT22;20423;49.448;9.056;2023-07-13T04:47:51;14.70;99.90
34147;DHT22;20423;49.448;9.056;2023-07-13T04:50:16;14.70;99.90
34147;DHT22;20423;49.448;9.056;2023-07-13T04:52:46;14.70;99.90
34147;DHT22;20423;49.448;9.056;2023-07-13T04:55:12;14.80;99.90
34147;DHT22;20423;49.448;9.056;2023-07-13T04:57:37;14.80;99.90
34147;DHT22;20423;49.448;9.056;2023-07-13T05:00:04;14.90;99.90
34147;DHT22;20423;49.448;9.056;2023-07-13T05:02:30;15.00;99.90
34147;DHT22;20423;49.448;9.056;2023-07-13T05:04:57;15.10;99.90
34147;DHT22;20423;49.448;9.056;2023-07-13T05:07:23;15.20;99.90
34147;DHT22;20423;49.448;9.056;2023-07-13T05:09:48;15.30;99.90
34147;DHT22;20423;49.448;9.056;2023-07-13T05:12:14;15.50;99.90
34147;DHT22;20423;49.448;9.056;2023-07-13T05:14:40;15.60;99.90
34147;DHT22;20423;49.448;9.056;2023-07-13T05:17:05;15.70;99.90
34147;DHT22;20423;49.448;9.056;2023-07-13T05:19:31;15.90;99.90
34147;DHT22;20423;49.448;9.056;2023-07-13T05:21:57;16.10;99.90
34147;DHT22;20423;49.448;9.056;2023-07-13T05:24:23;16.20;99.90
34147;DHT22;20423;49.448;9.056;2023-07-13T05:29:49;16.40;99.90
34147;DHT22;20423;49.448;9.056;2023-07-13T05:32:15;16.60;99.90
34147;DHT22;20423;49.448;9.056;2023-07-13T05:34:40;16.80;99.90
34147;DHT22;20423;49.448;9.056;2023-07-13T05:37:07;16.90;99.90
34147;DHT22;20423;49.448;9.056;2023-07-13T05:39:33;17.00;99.90
34147;DHT22;20423;49.448;9.056;2023-07-13T05:41:59;17.20;99.90
34147;DHT22;20423;49.448;9.056;2023-07-13T05:44:24;17.30;99.90
34147;DHT22;20423;49.448;9.056;2023-07-13T05:46:50;17.40;99.90
34147;DHT22;20423;49.448;9.056;2023-07-13T05:49:15;17.50;99.90
34147;DHT22;20423;49.448;9.056;2023-07-13T05:51:41;17.50;99.90
34147;DHT22;20423;49.448;9.056;2023-07-13T05:54:07;17.60;99.90
34147;DHT22;20423;49.448;9.056;2023-07-13T05:56:32;17.60;99.90
34147;DHT22;20423;49.448;9.056;2023-07-13T05:58:58;17.60;99.90
34147;DHT22;20423;49.448;9.056;2023-07-13T06:01:24;17.70;99.90
34147;DHT22;20423;49.448;9.056;2023-07-13T06:03:50;17.70;99.90
34147;DHT22;20423;49.448;9.056;2023-07-13T06:06:16;17.80;99.90
34147;DHT22;20423;49.448;9.056;2023-07-13T06:08:41;17.80;99.90
34147;DHT22;20423;49.448;9.056;2023-07-13T06:11:21;17.90;99.90
34147;DHT22;20423;49.448;9.056;2023-07-13T06:13:47;18.00;99.90
34147;DHT22;20423;49.448;9.056;2023-07-13T06:16:13;18.10;99.90
34147;DHT22;20423;49.448;9.056;2023-07-13T06:18:39;18.30;99.90
34147;DHT22;20423;49.448;9.056;2023-07-13T06:21:06;18.40;99.90
34147;DHT22;20423;49.448;9.056;2023-07-13T06:23:32;18.30;99.90
34147;DHT22;20423;49.448;9.056;2023-07-13T06:25:57;18.20;99.90
34147;DHT22;20423;49.448;9.056;2023-07-13T06:28:23;18.30;99.90
34147;DHT22;20423;49.448;9.056;2023-07-13T06:30:49;18.30;99.90
34147;DHT22;20423;49.448;9.056;2023-07-13T06:33:14;18.30;99.90
34147;DHT22;20423;49.448;9.056;2023-07-13T06:35:40;18.20;99.90
34147;DHT22;20423;49.448;9.056;2023-07-13T06:38:06;18.30;99.90
34147;DHT22;20423;49.448;9.056;2023-07-13T06:40:31;18.30;99.90
34147;DHT22;20423;49.448;9.056;2023-07-13T06:42:57;18.40;99.90
34147;DHT22;20423;49.448;9.056;2023-07-13T06:45:23;18.40;99.90
34147;DHT22;20423;49.448;9.056;2023-07-13T06:47:48;18.30;99.90
34147;DHT22;20423;49.448;9.056;2023-07-13T06:50:15;18.20;99.90
34147;DHT22;20423;49.448;9.056;2023-07-13T06:52:41;18.10;99.90
34147;DHT22;20423;49.448;9.056;2023-07-13T06:55:06;18.10;99.90
34147;DHT22;20423;49.448;9.056;2023-07-13T06:57:32;18.00;99.90
34147;DHT22;20423;49.448;9.056;2023-07-13T06:59:58;17.90;99.90
34147;DHT22;20423;49.448;9.056;2023-07-13T07:02:24;17.90;99.90
34147;DHT22;20423;49.448;9.056;2023-07-13T07:07:53;17.90;99.90
34147;DHT22;20423;49.448;9.056;2023-07-13T07:10:19;18.00;99.90
34147;DHT22;20423;49.448;9.056;2023-07-13T07:12:45;18.00;99.90
34147;DHT22;20423;49.448;9.056;2023-07-13T07:15:11;18.10;99.90
34147;DHT22;20423;49.448;9.056;2023-07-13T07:17:36;18.20;99.90
34147;DHT22;20423;49.448;9.056;2023-07-13T07:20:02;18.20;99.90
34147;DHT22;20423;49.448;9.056;2023-07-13T07:22:29;18.20;99.90
34147;DHT22;20423;49.448;9.056;2023-07-13T07:24:56;18.20;99.90
34147;DHT22;20423;49.448;9.056;2023-07-13T07:27:21;18.20;99.90
34147;DHT22;20423;49.448;9.056;2023-07-13T07:29:47;18.30;99.90
34147;DHT22;20423;49.448;9.056;2023-07-13T07:32:13;18.50;99.90
34147;DHT22;20423;49.448;9.056;2023-07-13T07:37:26;20.30;99.90
34147;DHT22;20423;49.448;9.056;2023-07-13T07:39:52;21.50;99.90
34147;DHT22;20423;49.448;9.056;2023-07-13T07:42:18;21.40;99.90
34147;DHT22;20423;49.448;9.056;2023-07-13T07:44:44;20.70;99.90
34147;DHT22;20423;49.448;9.056;2023-07-13T07:47:09;20.20;99.90
34147;DHT22;20423;49.448;9.056;2023-07-13T07:49:35;19.60;99.90
34147;DHT22;20423;49.448;9.056;2023-07-13T07:52:01;19.40;99.90
34147;DHT22;20423;49.448;9.056;2023-07-13T07:54:27;19.40;99.90
34147;DHT22;20423;49.448;9.056;2023-07-13T07:56:53;19.30;99.90
34147;DHT22;20423;49.448;9.056;2023-07-13T07:59:19;19.30;99.90
34147;DHT22;20423;49.448;9.056;2023-07-13T08:01:50;19.90;99.90
34147;DHT22;20423;49.448;9.056;2023-07-13T08:04:16;21.70;99.90
34147;DHT22;20423;49.448;9.056;2023-07-13T08:06:42;23.50;99.90
34147;DHT22;20423;49.448;9.056;2023-07-13T08:09:07;24.80;98.10
34147;DHT22;20423;49.448;9.056;2023-07-13T08:11:33;25.40;95.30
34147;DHT22;20423;49.448;9.056;2023-07-13T08:13:59;25.60;94.00
34147;DHT22;20423;49.448;9.056;2023-07-13T08:16:25;25.90;92.50
34147;DHT22;20423;49.448;9.056;2023-07-13T08:18:51;26.00;91.30
34147;DHT22;20423;49.448;9.056;2023-07-13T08:21:17;26.30;90.90
34147;DHT22;20423;49.448;9.056;2023-07-13T08:23:45;26.60;90.10
34147;DHT22;20423;49.448;9.056;2023-07-13T08:26:11;26.40;89.70
34147;DHT22;20423;49.448;9.056;2023-07-13T08:28:37;25.90;89.40
34147;DHT22;20423;49.448;9.056;2023-07-13T08:31:03;25.80;88.50
34147;DHT22;20423;49.448;9.056;2023-07-13T08:36:19;24.90;87.80
34147;DHT22;20423;49.448;9.056;2023-07-13T08:38:45;24.80;89.80
34147;DHT22;20423;49.448;9.056;2023-07-13T08:41:15;25.40;88.20
34147;DHT22;20423;49.448;9.056;2023-07-13T08:43:41;25.70;87.50
34147;DHT22;20423;49.448;9.056;2023-07-13T08:46:28;25.50;86.20
34147;DHT22;20423;49.448;9.056;2023-07-13T08:49:19;25.70;85.70
34147;DHT22;20423;49.448;9.056;2023-07-13T08:56:44;25.20;84.90
34147;DHT22;20423;49.448;9.056;2023-07-13T08:59:12;25.60;85.70
34147;DHT22;20423;49.448;9.056;2023-07-13T09:04:18;26.60;82.80
34147;DHT22;20423;49.448;9.056;2023-07-13T09:12:25;26.30;82.10
34147;DHT22;20423;49.448;9.056;2023-07-13T09:16:56;25.50;82.60
34147;DHT22;20423;49.448;9.056;2023-07-13T09:19:27;24.50;85.50
34147;DHT22;20423;49.448;9.056;2023-07-13T09:21:54;24.10;87.40
34147;DHT22;20423;49.448;9.056;2023-07-13T09:24:29;23.60;87.10
34147;DHT22;20423;49.448;9.056;2023-07-13T09:26:56;23.70;88.40
34147;DHT22;20423;49.448;9.056;2023-07-13T09:29:30;24.20;87.00
34147;DHT22;20423;49.448;9.056;2023-07-13T09:31:58;24.10;86.80
34147;DHT22;20423;49.448;9.056;2023-07-13T09:34:26;23.20;87.00
34147;DHT22;20423;49.448;9.056;2023-07-13T09:36:51;23.30;89.40
34147;DHT22;20423;49.448;9.056;2023-07-13T09:39:31;23.50;86.70
34147;DHT22;20423;49.448;9.056;2023-07-13T09:44:31;22.00;90.10
34147;DHT22;20423;49.448;9.056;2023-07-13T09:46:59;22.20;91.20
34147;DHT22;20423;49.448;9.056;2023-07-13T09:49:25;22.80;90.00
34147;DHT22;20423;49.448;9.056;2023-07-13T09:51:57;22.60;90.40
34147;DHT22;20423;49.448;9.056;2023-07-13T09:54:24;22.40;91.10
34147;DHT22;20423;49.448;9.056;2023-07-13T09:56:54;23.50;90.30
34147;DHT22;20423;49.448;9.056;2023-07-13T09:59:20;24.80;89.10
34147;DHT22;20423;49.448;9.056;2023-07-13T10:01:46;26.20;86.10
34147;DHT22;20423;49.448;9.056;2023-07-13T10:04:16;27.00;83.60
34147;DHT22;20423;49.448;9.056;2023-07-13T10:06:44;27.90;80.10
34147;DHT22;20423;49.448;9.056;2023-07-13T10:09:10;27.70;80.40
34147;DHT22;20423;49.448;9.056;2023-07-13T10:11:36;28.00;78.00
34147;DHT22;20423;49.448;9.056;2023-07-13T10:14:07;27.70;79.10
34147;DHT22;20423;49.448;9.056;2023-07-13T10:16:35;26.20;80.40
34147;DHT22;20423;49.448;9.056;2023-07-13T10:19:18;25.30;82.00
34147;DHT22;20423;49.448;9.056;2023-07-13T10:22:01;25.20;82.80
34147;DHT22;20423;49.448;9.056;2023-07-13T10:24:32;25.30;83.10
34147;DHT22;20423;49.448;9.056;2023-07-13T10:27:04;25.50;83.20
34147;DHT22;20423;49.448;9.056;2023-07-13T10:29:32;25.80;82.20
34147;DHT22;20423;49.448;9.056;2023-07-13T10:32:00;25.30;84.70
34147;DHT22;20423;49.448;9.056;2023-07-13T10:34:26;25.10;83.70
34147;DHT22;20423;49.448;9.056;2023-07-13T10:36:52;25.00;83.60
34147;DHT22;20423;49.448;9.056;2023-07-13T10:39:20;24.40;85.80
34147;DHT22;20423;49.448;9.056;2023-07-13T10:41:49;24.70;86.50
34147;DHT22;20423;49.448;9.056;2023-07-13T10:44:21;24.70;85.40
34147;DHT22;20423;49.448;9.056;2023-07-13T10:46:48;25.40;86.50
34147;DHT22;20423;49.448;9.056;2023-07-13T10:49:13;25.30;82.50
34147;DHT22;20423;49.448;9.056;2023-07-13T10:51:40;24.60;84.60
34147;DHT22;20423;49.448;9.056;2023-07-13T10:54:49;24.60;84.80
34147;DHT22;20423;49.448;9.056;2023-07-13T10:57:16;25.50;84.80
34147;DHT22;20423;49.448;9.056;2023-07-13T10:59:43;25.50;85.10
34147;DHT22;20423;49.448;9.056;2023-07-13T11:02:13;25.20;82.40
34147;DHT22;20423;49.448;9.056;2023-07-13T11:04:42;24.80;84.10
34147;DHT22;20423;49.448;9.056;2023-07-13T11:07:25;24.80;83.60
34147;DHT22;20423;49.448;9.056;2023-07-13T11:09:53;25.70;84.50
34147;DHT22;20423;49.448;9.056;2023-07-13T11:28:05;23.60;86.90
34147;DHT22;20423;49.448;9.056;2023-07-13T11:30:34;24.20;87.10
34147;DHT22;20423;49.448;9.056;2023-07-13T11:35:34;26.00;83.30
34147;DHT22;20423;49.448;9.056;2023-07-13T11:38:00;26.00;84.00
34147;DHT22;20423;49.448;9.056;2023-07-13T11:40:26;25.60;80.20
34147;DHT22;20423;49.448;9.056;2023-07-13T11:43:00;25.70;82.00
34147;DHT22;20423;49.448;9.056;2023-07-13T11:45:27;25.50;81.60
34147;DHT22;20423;49.448;9.056;2023-07-13T11:47:53;24.20;81.90
34147;DHT22;20423;49.448;9.056;2023-07-13T11:50:20;23.40;84.80
34147;DHT22;20423;49.448;9.056;2023-07-13T11:52:47;23.10;85.70
34147;DHT22;20423;49.448;9.056;2023-07-13T11:55:23;22.80;87.00
34147;DHT22;20423;49.448;9.056;2023-07-13T11:57:51;22.80;87.50
34147;DHT22;20423;49.448;9.056;2023-07-13T12:00:19;23.60;87.60
34147;DHT22;20423;49.448;9.056;2023-07-13T12:02:50;24.20;86.70
34147;DHT22;20423;49.448;9.056;2023-07-13T12:05:17;24.70;85.60
34147;DHT22;20423;49.448;9.056;2023-07-13T12:07:43;25.20;84.30
34147;DHT22;20423;49.448;9.056;2023-07-13T12:10:28;25.90;82.40
34147;DHT22;20423;49.448;9.056;2023-07-13T12:13:00;25.90;82.10
34147;DHT22;20423;49.448;9.056;2023-07-13T12:15:28;25.70;82.50
34147;DHT22;20423;49.448;9.056;2023-07-13T12:18:02;25.00;81.10
34147;DHT22;20423;49.448;9.056;2023-07-13T12:20:33;24.20;81.60
34147;DHT22;20423;49.448;9.056;2023-07-13T12:23:00;24.20;81.70
34147;DHT22;20423;49.448;9.056;2023-07-13T12:25:27;24.70;80.00
34147;DHT22;20423;49.448;9.056;2023-07-13T12:27:53;25.40;79.70
34147;DHT22;20423;49.448;9.056;2023-07-13T12:33:08;25.20;78.40
34147;DHT22;20423;49.448;9.056;2023-07-13T12:35:46;25.30;76.60
34147;DHT22;20423;49.448;9.056;2023-07-13T12:38:12;25.00;76.50
34147;DHT22;20423;49.448;9.056;2023-07-13T12:40:38;25.00;78.40
34147;DHT22;20423;49.448;9.056;2023-07-13T12:43:10;24.90;77.80
34147;DHT22;20423;49.448;9.056;2023-07-13T12:45:36;25.10;78.40
34147;DHT22;20423;49.448;9.056;2023-07-13T12:48:04;25.50;74.60
34147;DHT22;20423;49.448;9.056;2023-07-13T12:50:34;26.10;76.60
34147;DHT22;20423;49.448;9.056;2023-07-13T12:53:01;26.50;74.70
34147;DHT22;20423;49.448;9.056;2023-07-13T12:55:29;26.80;75.10
34147;DHT22;20423;49.448;9.056;2023-07-13T12:57:58;26.80;71.80
34147;DHT22;20423;49.448;9.056;2023-07-13T13:00:32;27.00;72.10
34147;DHT22;20423;49.448;9.056;2023-07-13T13:06:06;26.40;73.10
34147;DHT22;20423;49.448;9.056;2023-07-13T13:08:35;26.80;72.00
34147;DHT22;20423;49.448;9.056;2023-07-13T13:11:02;26.50;71.60
34147;DHT22;20423;49.448;9.056;2023-07-13T13:13:27;25.70;73.10
34147;DHT22;20423;49.448;9.056;2023-07-13T13:15:54;25.20;74.00
34147;DHT22;20423;49.448;9.056;2023-07-13T13:18:21;24.80;74.50
34147;DHT22;20423;49.448;9.056;2023-07-13T13:20:47;24.70;75.40
34147;DHT22;20423;49.448;9.056;2023-07-13T13:23:14;24.10;75.90
34147;DHT22;20423;49.448;9.056;2023-07-13T13:25:41;23.70;77.10
34147;DHT22;20423;49.448;9.056;2023-07-13T13:28:12;23.60;76.50
34147;DHT22;20423;49.448;9.056;2023-07-13T13:30:39;23.50;77.20
34147;DHT22;20423;49.448;9.056;2023-07-13T13:33:09;23.70;79.20
34147;DHT22;20423;49.448;9.056;2023-07-13T13:35:35;24.20;76.40
34147;DHT22;20423;49.448;9.056;2023-07-13T13:38:01;24.70;75.90
34147;DHT22;20423;49.448;9.056;2023-07-13T13:40:26;24.90;74.50
34147;DHT22;20423;49.448;9.056;2023-07-13T13:42:53;25.00;74.70
34147;DHT22;20423;49.448;9.056;2023-07-13T13:45:20;25.50;74.30
34147;DHT22;20423;49.448;9.056;2023-07-13T13:47:46;25.30;73.40
34147;DHT22;20423;49.448;9.056;2023-07-13T13:50:16;25.00;72.80
34147;DHT22;20423;49.448;9.056;2023-07-13T13:52:43;24.80;73.90
34147;DHT22;20423;49.448;9.056;2023-07-13T13:55:16;24.70;74.70
34147;DHT22;20423;49.448;9.056;2023-07-13T13:57:46;24.40;75.90
34147;DHT22;20423;49.448;9.056;2023-07-13T14:00:12;24.50;76.30
34147;DHT22;20423;49.448;9.056;2023-07-13T14:02:40;24.70;75.30
34147;DHT22;20423;49.448;9.056;2023-07-13T14:05:06;25.20;73.40
34147;DHT22;20423;49.448;9.056;2023-07-13T14:07:33;25.70;73.40
34147;DHT22;20423;49.448;9.056;2023-07-13T14:09:59;25.90;72.60
34147;DHT22;20423;49.448;9.056;2023-07-13T14:12:26;25.70;72.30
34147;DHT22;20423;49.448;9.056;2023-07-13T14:14:54;26.30;73.90
34147;DHT22;20423;49.448;9.056;2023-07-13T14:17:21;26.70;71.30
34147;DHT22;20423;49.448;9.056;2023-07-13T14:19:51;25.90;72.10
34147;DHT22;20423;49.448;9.056;2023-07-13T14:22:17;25.30;72.00
34147;DHT22;20423;49.448;9.056;2023-07-13T14:24:43;25.20;75.30
34147;DHT22;20423;49.448;9.056;2023-07-13T14:27:10;25.60;74.20
34147;DHT22;20423;49.448;9.056;2023-07-13T14:29:37;26.10;71.40
34147;DHT22;20423;49.448;9.056;2023-07-13T14:34:56;26.20;72.80
34147;DHT22;20423;49.448;9.056;2023-07-13T14:37:22;26.50;70.80
34147;DHT22;20423;49.448;9.056;2023-07-13T14:39:49;25.80;69.50
34147;DHT22;20423;49.448;9.056;2023-07-13T14:42:16;25.20;72.00
34147;DHT22;20423;49.448;9.056;2023-07-13T14:44:42;24.60;71.50
34147;DHT22;20423;49.448;9.056;2023-07-13T14:47:08;24.60;73.30
34147;DHT22;20423;49.448;9.056;2023-07-13T14:49:41;24.70;74.80
34147;DHT22;20423;49.448;9.056;2023-07-13T14:52:21;24.70;73.30
34147;DHT22;20423;49.448;9.056;2023-07-13T14:54:48;25.20;73.60
34147;DHT22;20423;49.448;9.056;2023-07-13T14:57:15;25.70;70.90
34147;DHT22;20423;49.448;9.056;2023-07-13T14:59:41;25.90;71.10
34147;DHT22;20423;49.448;9.056;2023-07-13T15:02:13;26.20;71.50
34147;DHT22;20423;49.448;9.056;2023-07-13T15:04:40;26.70;69.10
34147;DHT22;20423;49.448;9.056;2023-07-13T15:07:07;25.90;69.50
34147;DHT22;20423;49.448;9.056;2023-07-13T15:09:35;25.60;71.40
34147;DHT22;20423;49.448;9.056;2023-07-13T15:12:00;25.90;71.20
34147;DHT22;20423;49.448;9.056;2023-07-13T15:14:26;26.50;70.00
34147;DHT22;20423;49.448;9.056;2023-07-13T15:16:55;27.10;68.10
34147;DHT22;20423;49.448;9.056;2023-07-13T15:19:21;27.10;67.90
34147;DHT22;20423;49.448;9.056;2023-07-13T15:21:49;27.00;67.40
34147;DHT22;20423;49.448;9.056;2023-07-13T15:24:14;26.50;68.60
34147;DHT22;20423;49.448;9.056;2023-07-13T15:29:34;26.20;68.50
34147;DHT22;20423;49.448;9.056;2023-07-13T15:32:00;25.40;71.10
34147;DHT22;20423;49.448;9.056;2023-07-13T15:37:14;25.00;72.20
34147;DHT22;20423;49.448;9.056;2023-07-13T15:39:40;25.20;72.00
34147;DHT22;20423;49.448;9.056;2023-07-13T15:42:08;25.70;72.00
34147;DHT22;20423;49.448;9.056;2023-07-13T15:44:37;25.80;72.60
34147;DHT22;20423;49.448;9.056;2023-07-13T15:47:03;26.20;72.70
34147;DHT22;20423;49.448;9.056;2023-07-13T15:49:32;26.30;70.90
34147;DHT22;20423;49.448;9.056;2023-07-13T15:51:58;26.30;71.20
34147;DHT22;20423;49.448;9.056;2023-07-13T15:54:23;26.10;71.10
34147;DHT22;20423;49.448;9.056;2023-07-13T15:56:51;26.10;71.20
34147;DHT22;20423;49.448;9.056;2023-07-13T15:59:18;26.40;70.50
34147;DHT22;20423;49.448;9.056;2023-07-13T16:01:44;27.30;69.20
34147;DHT22;20423;49.448;9.056;2023-07-13T16:04:12;27.40;69.60
34147;DHT22;20423;49.448;9.056;2023-07-13T16:06:39;27.10;69.00
34147;DHT22;20423;49.448;9.056;2023-07-13T16:09:05;27.10;68.80
34147;DHT22;20423;49.448;9.056;2023-07-13T16:11:33;27.70;69.40
34147;DHT22;20423;49.448;9.056;2023-07-13T16:13:58;27.80;68.20
34147;DHT22;20423;49.448;9.056;2023-07-13T16:16:29;27.80;67.80
34147;DHT22;20423;49.448;9.056;2023-07-13T16:18:56;27.70;68.00
34147;DHT22;20423;49.448;9.056;2023-07-13T16:21:29;27.40;67.20
34147;DHT22;20423;49.448;9.056;2023-07-13T16:23:55;27.30;68.90
34147;DHT22;20423;49.448;9.056;2023-07-13T16:28:47;25.20;70.40
34147;DHT22;20423;49.448;9.056;2023-07-13T16:31:13;24.70;72.50
34147;DHT22;20423;49.448;9.056;2023-07-13T16:33:39;25.20;72.50
34147;DHT22;20423;49.448;9.056;2023-07-13T16:36:08;25.30;72.40
34147;DHT22;20423;49.448;9.056;2023-07-13T16:38:34;25.70;72.60
34147;DHT22;20423;49.448;9.056;2023-07-13T16:41:00;25.90;72.30
34147;DHT22;20423;49.448;9.056;2023-07-13T16:43:44;25.00;72.70
34147;DHT22;20423;49.448;9.056;2023-07-13T16:46:11;24.30;75.00
34147;DHT22;20423;49.448;9.056;2023-07-13T16:48:49;24.60;74.80
34147;DHT22;20423;49.448;9.056;2023-07-13T16:51:16;25.10;74.00
34147;DHT22;20423;49.448;9.056;2023-07-13T16:53:42;25.20;73.30